sensor_id;sensor_type;location;lat;lon;timestamp;P1;durP1;ratioP1;P2;durP2;ratioP2
57343;SDS011;43180;50.974;18.172;2023-03-31T00:04:47;4.50;;;3.00;;
57343;SDS011;43180;50.974;18.172;2023-03-31T00:14:44;6.20;;;3.20;;
57343;SDS011;43180;50.974;18.172;2023-03-31T00:19:36;8.00;;;4.60;;
57343;SDS011;43180;50.974;18.172;2023-03-31T00:29:24;7.40;;;4.20;;
57343;SDS011;43180;50.974;18.172;2023-03-31T00:39:12;6.90;;;3.60;;
57343;SDS011;43180;50.974;18.172;2023-03-31T00:49:01;12.60;;;3.10;;
57343;SDS011;43180;50.974;18.172;2023-03-31T00:58:56;5.20;;;2.50;;
57343;SDS011;43180;50.974;18.172;2023-03-31T01:08:48;8.60;;;3.20;;
57343;SDS011;43180;50.974;18.172;2023-03-31T01:18:35;8.30;;;3.60;;
57343;SDS011;43180;50.974;18.172;2023-03-31T01:50:27;5.90;;;2.60;;
57343;SDS011;43180;50.974;18.172;2023-03-31T02:11:09;5.30;;;2.80;;
57343;SDS011;43180;50.974;18.172;2023-03-31T02:20:57;6.00;;;3.00;;
57343;SDS011;43180;50.974;18.172;2023-03-31T02:40:49;5.80;;;3.60;;
57343;SDS011;43180;50.974;18.172;2023-03-31T02:50:55;7.80;;;4.90;;
57343;SDS011;43180;50.974;18.172;2023-03-31T03:11:51;18.70;;;8.30;;
57343;SDS011;43180;50.974;18.172;2023-03-31T03:21:46;11.90;;;6.10;;
57343;SDS011;43180;50.974;18.172;2023-03-31T03:31:30;23.70;;;12.60;;
57343;SDS011;43180;50.974;18.172;2023-03-31T03:41:15;15.00;;;7.50;;
57343;SDS011;43180;50.974;18.172;2023-03-31T03:51:01;12.50;;;5.50;;
57343;SDS011;43180;50.974;18.172;2023-03-31T04:00:45;8.40;;;5.50;;
57343;SDS011;43180;50.974;18.172;2023-03-31T04:10:30;8.60;;;5.50;;
57343;SDS011;43180;50.974;18.172;2023-03-31T04:20:15;11.60;;;6.30;;
57343;SDS011;43180;50.974;18.172;2023-03-31T04:30:23;5.30;;;3.70;;
57343;SDS011;43180;50.974;18.172;2023-03-31T04:40:23;13.00;;;7.30;;
57343;SDS011;43180;50.974;18.172;2023-03-31T04:50:08;18.80;;;7.70;;
57343;SDS011;43180;50.974;18.172;2023-03-31T04:59:51;9.80;;;7.70;;
57343;SDS011;43180;50.974;18.172;2023-03-31T05:09:42;17.60;;;3.90;;
57343;SDS011;43180;50.974;18.172;2023-03-31T05:19:25;13.70;;;6.60;;
57343;SDS011;43180;50.974;18.172;2023-03-31T05:29:12;13.50;;;7.90;;
57343;SDS011;43180;50.974;18.172;2023-03-31T05:38:56;9.60;;;6.30;;
57343;SDS011;43180;50.974;18.172;2023-03-31T05:48:38;10.60;;;4.80;;
57343;SDS011;43180;50.974;18.172;2023-03-31T05:58:23;15.30;;;9.10;;
57343;SDS011;43180;50.974;18.172;2023-03-31T06:08:18;9.50;;;5.40;;
57343;SDS011;43180;50.974;18.172;2023-03-31T06:18:01;19.10;;;6.60;;
57343;SDS011;43180;50.974;18.172;2023-03-31T06:27:43;32.00;;;8.80;;
57343;SDS011;43180;50.974;18.172;2023-03-31T06:37:26;39.90;;;14.70;;
57343;SDS011;43180;50.974;18.172;2023-03-31T06:47:09;14.60;;;8.30;;
57343;SDS011;43180;50.974;18.172;2023-03-31T06:56:51;13.40;;;6.20;;
57343;SDS011;43180;50.974;18.172;2023-03-31T07:06:36;7.10;;;3.80;;
57343;SDS011;43180;50.974;18.172;2023-03-31T07:16:20;11.20;;;6.20;;
57343;SDS011;43180;50.974;18.172;2023-03-31T07:26:02;13.30;;;3.70;;
57343;SDS011;43180;50.974;18.172;2023-03-31T07:35:45;7.70;;;4.40;;
57343;SDS011;43180;50.974;18.172;2023-03-31T07:45:28;7.90;;;3.90;;
57343;SDS011;43180;50.974;18.172;2023-03-31T07:55:12;7.40;;;3.70;;
57343;SDS011;43180;50.974;18.172;2023-03-31T08:04:58;5.30;;;2.90;;
57343;SDS011;43180;50.974;18.172;2023-03-31T08:14:41;10.40;;;3.20;;
57343;SDS011;43180;50.974;18.172;2023-03-31T08:24:25;1.80;;;1.70;;
57343;SDS011;43180;50.974;18.172;2023-03-31T08:34:07;7.00;;;3.90;;
57343;SDS011;43180;50.974;18.172;2023-03-31T08:44:01;3.30;;;2.70;;
57343;SDS011;43180;50.974;18.172;2023-03-31T08:54:00;2.50;;;1.90;;
57343;SDS011;43180;50.974;18.172;2023-03-31T09:15:00;2.20;;;2.00;;
57343;SDS011;43180;50.974;18.172;2023-03-31T09:25:12;1.70;;;1.60;;
57343;SDS011;43180;50.974;18.172;2023-03-31T09:35:16;5.00;;;3.00;;
57343;SDS011;43180;50.974;18.172;2023-03-31T09:45:20;10.80;;;3.70;;
57343;SDS011;43180;50.974;18.172;2023-03-31T09:55:19;8.50;;;2.40;;
57343;SDS011;43180;50.974;18.172;2023-03-31T10:15:21;1.30;;;1.30;;
57343;SDS011;43180;50.974;18.172;2023-03-31T10:25:17;13.60;;;4.80;;
57343;SDS011;43180;50.974;18.172;2023-03-31T10:45:48;4.40;;;1.90;;
57343;SDS011;43180;50.974;18.172;2023-03-31T11:48:53;1.80;;;1.60;;
57343;SDS011;43180;50.974;18.172;2023-03-31T11:58:47;3.50;;;1.10;;
57343;SDS011;43180;50.974;18.172;2023-03-31T12:19:19;2.60;;;0.90;;
57343;SDS011;43180;50.974;18.172;2023-03-31T12:29:19;5.30;;;0.80;;
57343;SDS011;43180;50.974;18.172;2023-03-31T12:50:27;1.10;;;0.80;;
57343;SDS011;43180;50.974;18.172;2023-03-31T13:11:16;8.30;;;1.70;;
57343;SDS011;43180;50.974;18.172;2023-03-31T13:21:01;3.20;;;1.00;;
57343;SDS011;43180;50.974;18.172;2023-03-31T14:12:29;28.90;;;9.90;;
57343;SDS011;43180;50.974;18.172;2023-03-31T14:43:45;2.10;;;1.90;;
57343;SDS011;43180;50.974;18.172;2023-03-31T14:53:35;18.70;;;6.60;;
57343;SDS011;43180;50.974;18.172;2023-03-31T15:03:24;13.00;;;5.30;;
57343;SDS011;43180;50.974;18.172;2023-03-31T15:13:18;22.20;;;7.70;;
57343;SDS011;43180;50.974;18.172;2023-03-31T15:23:17;10.10;;;4.90;;
57343;SDS011;43180;50.974;18.172;2023-03-31T15:33:18;12.20;;;5.50;;
57343;SDS011;43180;50.974;18.172;2023-03-31T15:43:18;17.10;;;4.10;;
57343;SDS011;43180;50.974;18.172;2023-03-31T15:53:55;14.40;;;7.30;;
57343;SDS011;43180;50.974;18.172;2023-03-31T16:03:47;13.60;;;7.90;;
57343;SDS011;43180;50.974;18.172;2023-03-31T16:13:37;25.70;;;12.10;;
57343;SDS011;43180;50.974;18.172;2023-03-31T16:23:31;42.60;;;12.50;;
57343;SDS011;43180;50.974;18.172;2023-03-31T16:33:26;57.00;;;18.50;;
57343;SDS011;43180;50.974;18.172;2023-03-31T16:43:20;56.50;;;16.40;;
57343;SDS011;43180;50.974;18.172;2023-03-31T16:53:14;52.30;;;15.80;;
57343;SDS011;43180;50.974;18.172;2023-03-31T17:03:00;74.70;;;17.00;;
57343;SDS011;43180;50.974;18.172;2023-03-31T17:12:44;122.60;;;28.40;;
57343;SDS011;43180;50.974;18.172;2023-03-31T17:22:28;110.00;;;31.90;;
57343;SDS011;43180;50.974;18.172;2023-03-31T17:32:14;66.20;;;16.00;;
57343;SDS011;43180;50.974;18.172;2023-03-31T17:41:57;31.40;;;12.70;;
57343;SDS011;43180;50.974;18.172;2023-03-31T17:51:41;50.30;;;19.90;;
57343;SDS011;43180;50.974;18.172;2023-03-31T18:01:26;22.70;;;12.40;;
57343;SDS011;43180;50.974;18.172;2023-03-31T18:11:13;24.90;;;7.50;;
57343;SDS011;43180;50.974;18.172;2023-03-31T18:21:03;52.90;;;20.40;;
57343;SDS011;43180;50.974;18.172;2023-03-31T18:30:47;33.90;;;11.20;;
57343;SDS011;43180;50.974;18.172;2023-03-31T18:40:30;15.70;;;7.90;;
57343;SDS011;43180;50.974;18.172;2023-03-31T18:50:19;51.10;;;22.00;;
57343;SDS011;43180;50.974;18.172;2023-03-31T19:00:02;26.20;;;13.30;;
57343;SDS011;43180;50.974;18.172;2023-03-31T19:09:46;36.30;;;14.10;;
57343;SDS011;43180;50.974;18.172;2023-03-31T19:12:12;40.60;;;20.50;;
57343;SDS011;43180;50.974;18.172;2023-03-31T19:21:57;33.10;;;15.10;;
57343;SDS011;43180;50.974;18.172;2023-03-31T19:31:40;47.50;;;19.00;;
57343;SDS011;43180;50.974;18.172;2023-03-31T19:41:26;50.10;;;16.60;;
57343;SDS011;43180;50.974;18.172;2023-03-31T19:51:08;13.40;;;7.30;;
57343;SDS011;43180;50.974;18.172;2023-03-31T20:00:57;16.30;;;8.00;;
57343;SDS011;43180;50.974;18.172;2023-03-31T20:10:42;12.60;;;7.30;;
57343;SDS011;43180;50.974;18.172;2023-03-31T20:20:24;16.50;;;9.00;;
57343;SDS011;43180;50.974;18.172;2023-03-31T20:30:07;14.60;;;7.30;;
57343;SDS011;43180;50.974;18.172;2023-03-31T20:39:50;21.70;;;10.30;;
57343;SDS011;43180;50.974;18.172;2023-03-31T20:49:34;23.30;;;7.60;;
57343;SDS011;43180;50.974;18.172;2023-03-31T20:59:16;20.60;;;8.80;;
57343;SDS011;43180;50.974;18.172;2023-03-31T21:09:18;18.60;;;9.30;;
57343;SDS011;43180;50.974;18.172;2023-03-31T21:19:04;11.60;;;3.90;;
57343;SDS011;43180;50.974;18.172;2023-03-31T21:23:55;13.30;;;7.30;;
57343;SDS011;43180;50.974;18.172;2023-03-31T21:33:41;14.00;;;5.70;;
57343;SDS011;43180;50.974;18.172;2023-03-31T21:43:31;8.40;;;5.00;;
57343;SDS011;43180;50.974;18.172;2023-03-31T21:53:19;14.70;;;5.30;;
57343;SDS011;43180;50.974;18.172;2023-03-31T22:03:03;10.80;;;3.40;;
57343;SDS011;43180;50.974;18.172;2023-03-31T22:12:48;7.90;;;6.20;;
57343;SDS011;43180;50.974;18.172;2023-03-31T22:22:32;15.70;;;9.10;;
57343;SDS011;43180;50.974;18.172;2023-03-31T22:32:15;12.70;;;6.30;;
57343;SDS011;43180;50.974;18.172;2023-03-31T22:42:01;6.70;;;4.00;;
57343;SDS011;43180;50.974;18.172;2023-03-31T22:51:44;10.70;;;4.90;;
57343;SDS011;43180;50.974;18.172;2023-03-31T23:01:30;8.90;;;5.30;;
57343;SDS011;43180;50.974;18.172;2023-03-31T23:06:21;12.00;;;6.10;;
57343;SDS011;43180;50.974;18.172;2023-03-31T23:16:05;6.10;;;3.90;;
57343;SDS011;43180;50.974;18.172;2023-03-31T23:25:48;16.60;;;5.00;;
57343;SDS011;43180;50.974;18.172;2023-03-31T23:35:32;7.10;;;3.70;;
57343;SDS011;43180;50.974;18.172;2023-03-31T23:45:15;7.70;;;5.80;;
57343;SDS011;43180;50.974;18.172;2023-03-31T23:55:00;8.00;;;4.40;;
